Time;durP1;ratioP1;P1;durP2;ratioP2;P2;SDS_P1;SDS_P2;PMS_P1;PMS_P2;Temp;Humidity;BMP_temperature;BMP_pressure;BME280_temperature;BME280_humidity;BME280_pressure;Samples;Min_cycle;Max_cycle;Signal;HPM_P1;HPM_P2
2022/11/17 00:06:39;;;;;;;5.60;3.90;;;;;;;2.58;95.67;97489.63;421513;1296;97863;-40
2022/11/17 00:16:50;;;;;;;3.70;2.40;;;;;;;2.58;95.84;97479.17;421430;1298;110814;-41
2022/11/17 00:27:04;;;;;;;2.50;1.80;;;;;;;2.56;95.74;97479.02;421430;1291;108141;-40
2022/11/17 00:37:13;;;;;;;1.50;1.00;;;;;;;2.56;95.80;97481.83;421599;1289;97893;-41
2022/11/17 00:47:20;;;;;;;3.10;1.60;;;;;;;2.57;95.78;97483.88;421483;1299;108770;-41
2022/11/17 00:57:27;;;;;;;3.30;1.40;;;;;;;2.59;95.99;97491.02;421428;1289;97506;-40
2022/11/17 01:07:35;;;;;;;4.40;2.20;;;;;;;2.60;95.85;97485.00;421511;1296;110367;-40
2022/11/17 01:17:42;;;;;;;5.60;3.00;;;;;;;2.62;95.87;97479.14;421515;1299;108614;-40
2022/11/17 01:27:49;;;;;;;3.90;3.50;;;;;;;2.64;95.94;97468.53;421557;1295;97471;-40
2022/11/17 01:37:56;;;;;;;3.50;3.20;;;;;;;2.64;96.01;97462.35;421392;1299;108150;-41
2022/11/17 01:48:02;;;;;;;4.30;2.80;;;;;;;2.63;96.07;97458.50;421361;1291;97877;-40
2022/11/17 01:58:15;;;;;;;2.10;1.80;;;;;;;2.63;96.00;97444.94;421556;1299;108954;-40
2022/11/17 02:08:26;;;;;;;2.90;2.50;;;;;;;2.63;95.99;97439.98;423080;1269;108150;-40
2022/11/17 02:18:33;;;;;;;2.60;2.40;;;;;;;2.64;95.92;97445.80;420926;1295;97863;-41
2022/11/17 02:28:43;;;;;;;3.90;2.40;;;;;;;2.65;95.81;97449.13;420851;1289;108194;-39
2022/11/17 02:38:50;;;;;;;3.10;2.40;;;;;;;2.66;95.87;97457.60;420917;1289;97692;-40
2022/11/17 02:49:02;;;;;;;3.50;2.80;;;;;;;2.64;95.85;97455.32;420991;1299;110755;-40
2022/11/17 02:59:12;;;;;;;2.80;2.30;;;;;;;2.64;95.86;97448.42;421018;1287;109510;-40
2022/11/17 03:09:18;;;;;;;4.10;2.50;;;;;;;2.62;95.80;97453.92;420987;1288;98030;-40
2022/11/17 03:19:25;;;;;;;2.80;2.20;;;;;;;2.61;95.65;97457.30;420904;1299;107971;-41
2022/11/17 03:29:35;;;;;;;2.90;2.10;;;;;;;2.59;95.77;97457.26;421018;1303;97902;-40
2022/11/17 03:39:40;;;;;;;2.70;2.20;;;;;;;2.57;95.65;97458.79;421131;1299;110125;-41
2022/11/17 03:49:47;;;;;;;2.80;2.30;;;;;;;2.55;95.70;97459.56;421025;1291;107804;-42
2022/11/17 03:59:55;;;;;;;2.80;2.00;;;;;;;2.53;95.82;97454.06;422076;1299;97496;-39
2022/11/17 04:10:03;;;;;;;1.70;1.60;;;;;;;2.53;95.72;97457.35;421117;1297;106940;-41
2022/11/17 04:20:12;;;;;;;2.60;2.30;;;;;;;2.51;95.63;97455.89;421384;1295;97873;-40
2022/11/17 04:30:17;;;;;;;3.60;2.70;;;;;;;2.49;95.49;97462.16;421245;1299;111667;-41
2022/11/17 04:40:24;;;;;;;4.10;3.10;;;;;;;2.47;95.43;97463.41;421054;1296;107178;-41
2022/11/17 04:50:31;;;;;;;2.10;1.90;;;;;;;2.41;95.42;97458.42;420883;1305;97880;-40
2022/11/17 05:00:38;;;;;;;2.80;2.00;;;;;;;2.36;95.41;97459.86;420951;1295;108330;-40
2022/11/17 05:21:12;;;;;;;2.70;2.20;;;;;;;2.35;95.39;97471.30;420965;1299;108720;-39
2022/11/17 05:31:19;;;;;;;2.60;2.20;;;;;;;2.34;95.33;97474.99;420849;1299;108138;-40
2022/11/17 05:41:27;;;;;;;3.60;2.80;;;;;;;2.31;94.79;97462.37;422529;1289;97897;-41
2022/11/17 05:51:36;;;;;;;2.10;1.90;;;;;;;2.26;94.26;97479.77;423165;1295;107591;-42
2022/11/17 06:01:45;;;;;;;3.40;2.30;;;;;;;2.21;93.74;97481.75;420901;1299;97902;-39
2022/11/17 06:11:53;;;;;;;2.60;2.40;;;;;;;2.16;93.70;97491.42;420969;1298;111629;-41
2022/11/17 06:22:01;;;;;;;3.60;3.00;;;;;;;2.06;93.27;97509.36;421594;1289;108260;-40
2022/11/17 06:32:20;;;;;;;3.00;1.80;;;;;;;2.03;92.99;97518.20;421877;1295;97867;-39
2022/11/17 06:52:55;;;;;;;2.30;1.80;;;;;;;1.99;92.28;97531.37;421679;1292;97985;-40
2022/11/17 07:03:05;;;;;;;3.20;2.30;;;;;;;1.99;92.29;97536.50;421179;1296;110291;-40
2022/11/17 07:13:11;;;;;;;2.10;1.90;;;;;;;2.01;92.25;97529.88;420881;1292;108329;-41
2022/11/17 07:23:18;;;;;;;4.00;3.00;;;;;;;2.02;91.98;97537.27;421770;1296;96691;-39
2022/11/17 07:33:25;;;;;;;5.60;4.00;;;;;;;2.00;91.82;97538.55;423485;1291;108087;-40
2022/11/17 07:43:35;;;;;;;6.30;4.10;;;;;;;1.95;91.95;97545.29;420901;1299;96951;-40
2022/11/17 07:53:42;;;;;;;5.90;4.40;;;;;;;1.84;91.94;97548.08;422536;1299;110404;-40
2022/11/17 08:03:48;;;;;;;5.60;5.00;;;;;;;1.76;91.79;97545.48;421632;1296;108189;-40
2022/11/17 08:13:56;;;;;;;6.30;4.60;;;;;;;1.73;91.93;97540.67;422040;1284;97781;-41
2022/11/17 08:24:03;;;;;;;8.10;5.20;;;;;;;1.68;91.94;97544.16;423953;1289;108338;-40
2022/11/17 08:34:10;;;;;;;8.00;4.80;;;;;;;1.59;91.94;97556.88;421648;1289;97913;-41
2022/11/17 08:44:17;;;;;;;6.10;5.20;;;;;;;1.49;92.24;97553.36;420812;1291;111315;-41
2022/11/17 08:54:24;;;;;;;7.80;5.70;;;;;;;1.49;92.46;97554.64;420783;1291;108016;-40
2022/11/17 09:04:32;;;;;;;10.90;6.60;;;;;;;1.60;92.46;97566.18;421102;1292;97736;-41
2022/11/17 09:14:39;;;;;;;10.00;5.20;;;;;;;1.59;92.44;97565.70;420973;1298;108563;-40
2022/11/17 09:24:46;;;;;;;6.20;4.50;;;;;;;1.53;92.58;97563.45;420968;1290;97938;-40
2022/11/17 09:34:54;;;;;;;8.40;5.20;;;;;;;1.51;92.57;97565.66;420906;1287;111636;-41
2022/11/17 09:45:05;;;;;;;6.10;4.90;;;;;;;1.50;92.48;97567.62;420960;1289;107224;-41
2022/11/17 09:55:18;;;;;;;10.90;6.80;;;;;;;1.36;92.46;97575.16;420929;1295;97902;-40
2022/11/17 10:05:26;;;;;;;11.30;6.90;;;;;;;1.23;92.45;97575.34;420871;1299;107998;-40
2022/11/17 10:15:35;;;;;;;18.00;10.20;;;;;;;1.13;92.30;97571.25;420949;1291;97641;-40
2022/11/17 10:25:41;;;;;;;6.80;5.70;;;;;;;1.06;92.41;97562.52;421035;1298;110475;-40
2022/11/17 10:35:56;;;;;;;8.20;6.60;;;;;;;1.05;92.50;97573.11;420965;1290;108217;-40
2022/11/17 10:46:02;;;;;;;8.30;6.40;;;;;;;1.08;92.47;97575.20;421073;1297;96687;-40
2022/11/17 10:56:15;;;;;;;8.90;6.30;;;;;;;1.14;92.46;97565.95;420814;1299;109257;-39
2022/11/17 11:06:28;;;;;;;12.30;6.90;;;;;;;1.19;92.39;97563.30;420939;1298;97862;-40
2022/11/17 11:16:35;;;;;;;10.20;6.30;;;;;;;1.27;92.39;97567.61;420646;1289;365790;-40
2022/11/17 11:26:44;;;;;;;9.20;5.90;;;;;;;1.26;92.37;97577.59;420864;1298;107624;-39
2022/11/17 11:36:56;;;;;;;7.20;6.40;;;;;;;1.26;92.23;97582.91;420828;1290;97033;-41
2022/11/17 11:47:01;;;;;;;17.50;8.90;;;;;;;1.31;91.98;97582.48;420749;1290;107173;-39
2022/11/17 11:57:10;;;;;;;16.30;8.70;;;;;;;1.23;91.76;97578.98;420839;1294;97512;-40
2022/11/17 12:07:18;;;;;;;15.40;7.40;;;;;;;1.11;91.64;97567.63;420789;1291;109694;-41
2022/11/17 12:17:25;;;;;;;9.70;7.20;;;;;;;1.15;91.55;97568.92;420832;1295;108594;-40
2022/11/17 12:27:47;;;;;;;9.40;5.80;;;;;;;1.16;91.29;97564.40;420817;1291;97484;-40
2022/11/17 12:38:25;;;;;;;7.60;4.70;;;;;;;1.19;90.78;97567.62;421251;1291;108028;-40
2022/11/17 12:48:31;;;;;;;6.90;5.10;;;;;;;1.31;90.62;97573.23;421217;1288;96696;-41
2022/11/17 12:58:40;;;;;;;11.20;6.10;;;;;;;1.30;90.37;97578.11;421249;1299;109013;-40
2022/11/17 13:08:55;;;;;;;6.00;4.00;;;;;;;1.31;90.10;97584.72;421164;1290;107548;-40
2022/11/17 13:19:02;;;;;;;6.80;4.10;;;;;;;1.35;89.65;97590.09;421147;1289;97864;-39
2022/11/17 13:39:18;;;;;;;6.70;4.60;;;;;;;1.34;89.27;97575.64;420976;1295;108208;-40
2022/11/17 13:49:39;;;;;;;5.60;4.90;;;;;;;1.33;89.03;97578.80;420967;1292;96737;-39
2022/11/17 13:59:46;;;;;;;11.20;8.30;;;;;;;1.20;88.93;97576.08;421037;1282;109925;-40
2022/11/17 14:20:30;;;;;;;9.00;6.60;;;;;;;1.15;88.78;97571.60;421017;1296;96660;-39
2022/11/17 14:30:38;;;;;;;15.40;8.20;;;;;;;1.08;88.56;97559.89;421092;1290;109064;-40
2022/11/17 14:40:45;;;;;;;10.30;7.50;;;;;;;1.04;88.49;97550.40;421140;1284;108309;-40
2022/11/17 14:50:57;;;;;;;10.00;7.80;;;;;;;1.05;88.39;97538.91;421051;1291;98134;-40
2022/11/17 15:11:12;;;;;;;;;;;;;;;0.82;88.35;97536.45;421131;1298;107806;-41
2022/11/17 15:21:19;;;;;;;13.40;8.20;;;;;;;0.79;88.60;97534.48;421065;1291;97493;-41
2022/11/17 15:31:27;;;;;;;14.90;10.50;;;;;;;0.77;88.73;97525.55;420933;1295;110182;-40
2022/11/17 15:41:35;;;;;;;13.40;8.50;;;;;;;0.66;88.84;97518.20;420923;1299;108752;-42
2022/11/17 15:51:42;;;;;;;17.10;10.20;;;;;;;0.63;88.71;97499.08;420999;1299;97500;-41
2022/11/17 16:01:50;;;;;;;11.30;7.50;;;;;;;0.63;88.84;97497.42;420813;1297;108185;-40
2022/11/17 16:11:58;;;;;;;18.10;10.10;;;;;;;0.66;88.94;97495.40;421089;1292;97899;-43
2022/11/17 16:22:05;;;;;;;16.10;8.10;;;;;;;0.61;88.56;97486.22;420714;1292;97879;-41
2022/11/17 16:32:12;;;;;;;14.70;7.40;;;;;;;0.62;88.55;97488.61;420560;1292;108599;-41
2022/11/17 16:42:19;;;;;;;16.00;10.40;;;;;;;0.61;88.56;97495.82;420546;1292;97972;-40
2022/11/17 16:52:26;;;;;;;19.10;11.40;;;;;;;0.54;88.59;97501.16;420606;1292;97899;-41
2022/11/17 17:02:33;;;;;;;11.50;7.70;;;;;;;0.53;88.37;97501.84;420630;1292;110684;-40
2022/11/17 17:12:41;;;;;;;11.00;7.40;;;;;;;0.52;88.23;97510.45;420589;1284;107737;-41
2022/11/17 17:22:48;;;;;;;24.20;14.60;;;;;;;0.61;88.47;97516.98;420592;1298;97536;-40
2022/11/17 17:32:56;;;;;;;23.40;15.00;;;;;;;0.66;88.66;97527.65;420695;1298;107217;-40
2022/11/17 17:43:04;;;;;;;23.20;14.70;;;;;;;0.58;88.42;97534.59;420744;1289;97253;-40
2022/11/17 17:53:11;;;;;;;20.30;11.90;;;;;;;0.60;88.25;97537.92;420776;1290;97867;-40
2022/11/17 18:03:18;;;;;;;16.70;9.00;;;;;;;0.60;88.23;97532.80;420753;1291;106526;-41
2022/11/17 18:13:28;;;;;;;11.50;7.20;;;;;;;0.58;88.13;97537.35;420885;1298;96923;-40
2022/11/17 18:23:37;;;;;;;13.10;8.10;;;;;;;0.53;88.07;97528.33;420918;1296;110124;-41
2022/11/17 18:43:51;;;;;;;8.50;5.80;;;;;;;0.33;87.66;97512.54;420970;1292;97756;-41
2022/11/17 18:54:00;;;;;;;8.40;5.80;;;;;;;0.32;87.29;97510.70;420707;1299;110802;-40
2022/11/17 19:04:06;;;;;;;20.30;10.50;;;;;;;0.32;87.33;97503.93;420825;1292;107860;-40
2022/11/17 19:14:14;;;;;;;8.40;5.70;;;;;;;0.26;87.04;97486.66;420904;1293;96680;-40
2022/11/17 19:24:21;;;;;;;6.10;4.60;;;;;;;0.24;86.84;97488.61;421087;1291;109890;-39
2022/11/17 19:34:28;;;;;;;11.60;7.40;;;;;;;0.21;86.74;97483.30;420876;1298;108574;-41
2022/11/17 19:44:35;;;;;;;8.00;5.30;;;;;;;0.15;86.53;97476.67;420688;1298;97868;-40
2022/11/17 19:54:40;;;;;;;7.20;5.60;;;;;;;0.17;86.51;97484.39;420927;1289;108107;-40
2022/11/17 20:04:48;;;;;;;10.30;6.90;;;;;;;0.11;86.52;97486.17;420847;1296;97890;-41
2022/11/17 20:14:55;;;;;;;12.20;8.60;;;;;;;0.10;86.51;97495.52;420732;1281;96671;-40
2022/11/17 20:35:10;;;;;;;11.30;8.20;;;;;;;0.08;86.27;97497.84;420642;1293;108545;-40
2022/11/17 20:45:16;;;;;;;10.80;7.90;;;;;;;0.07;86.32;97490.08;420761;1298;97877;-40
2022/11/17 20:55:24;;;;;;;12.20;6.90;;;;;;;-0.06;86.09;97475.83;420635;1298;109927;-39
2022/11/17 21:05:31;;;;;;;24.80;8.80;;;;;;;-0.15;86.01;97459.11;420702;1295;107237;-40
2022/11/17 21:15:36;;;;;;;10.60;6.80;;;;;;;-0.10;86.06;97444.23;420770;1298;97889;-42
2022/11/17 21:25:43;;;;;;;24.10;12.40;;;;;;;-0.07;86.24;97435.77;420661;1298;110300;-39
2022/11/17 21:35:51;;;;;;;20.20;14.00;;;;;;;-0.08;86.29;97416.65;420682;1298;107453;-40
2022/11/17 21:46:01;;;;;;;11.10;8.30;;;;;;;-0.10;86.21;97406.61;420678;1295;96665;-40
2022/11/17 21:56:08;;;;;;;15.30;9.90;;;;;;;-0.08;86.26;97406.58;420801;1295;105738;-40
2022/11/17 22:06:18;;;;;;;16.70;8.80;;;;;;;0.02;86.27;97405.52;420736;1298;97912;-39
2022/11/17 22:16:25;;;;;;;13.40;8.80;;;;;;;-0.06;86.22;97392.95;420731;1299;108237;-40
2022/11/17 22:26:34;;;;;;;10.90;6.70;;;;;;;-0.14;86.00;97393.20;420748;1295;108274;-41
2022/11/17 22:36:42;;;;;;;11.50;7.30;;;;;;;-0.12;86.06;97398.96;420766;1299;97918;-39
2022/11/17 22:46:49;;;;;;;12.00;8.60;;;;;;;0.02;86.31;97395.40;420684;1292;110779;-41
2022/11/17 22:56:56;;;;;;;35.20;17.80;;;;;;;0.02;86.29;97394.25;420834;1302;108267;-40
2022/11/17 23:07:03;;;;;;;20.70;13.10;;;;;;;-0.05;86.14;97379.82;420921;1299;97509;-39
2022/11/17 23:17:11;;;;;;;37.20;15.90;;;;;;;-0.16;86.13;97366.14;420659;1292;330943;-39
2022/11/17 23:27:19;;;;;;;11.90;7.50;;;;;;;-0.10;86.21;97359.20;420925;1287;107301;-40
2022/11/17 23:37:25;;;;;;;22.10;13.20;;;;;;;-0.08;86.11;97357.94;420871;1299;97868;-40
2022/11/17 23:47:33;;;;;;;16.00;10.10;;;;;;;-0.22;86.28;97354.02;421022;1295;110651;-40
2022/11/17 23:57:40;;;;;;;15.80;9.60;;;;;;;-0.32;85.95;97351.17;420797;1291;107511;-39
